createdAt,value
2017-11-26T00:01:05.280Z,98.22
2017-11-26T00:03:35.285Z,98.28
2017-11-26T00:06:05.476Z,98.19
2017-11-26T00:08:35.346Z,97.30
2017-11-26T00:11:08.905Z,97.41
2017-11-26T00:13:38.784Z,97.46
2017-11-26T00:16:09.065Z,97.56
2017-11-26T00:21:13.777Z,97.78
2017-11-26T00:23:44.212Z,97.95
2017-11-26T00:26:14.490Z,98.09
2017-11-26T00:28:44.961Z,98.07
2017-11-26T00:31:14.845Z,98.14
2017-11-26T00:33:44.782Z,97.91
2017-11-26T00:36:15.105Z,98.08
2017-11-26T00:44:01.709Z,96.81
2017-11-26T00:46:32.180Z,96.23
2017-11-26T00:49:02.998Z,95.12
2017-11-26T00:51:33.957Z,95.30
2017-11-26T00:54:04.781Z,95.75
2017-11-26T00:56:36.587Z,95.73
2017-11-26T01:01:42.890Z,94.75
2017-11-26T01:04:13.209Z,95.03
2017-11-26T01:06:45.013Z,95.18
2017-11-26T01:11:52.276Z,95.02
2017-11-26T01:14:25.316Z,95.18
2017-11-26T01:16:55.334Z,95.33
2017-11-26T01:19:27.807Z,95.50
2017-11-26T01:21:58.004Z,95.52
2017-11-26T01:24:31.298Z,95.07
2017-11-26T01:27:01.891Z,95.29
2017-11-26T01:32:06.683Z,95.54
2017-11-26T01:34:37.026Z,95.56
2017-11-26T01:42:21.511Z,94.39
2017-11-26T01:44:53.998Z,94.86
2017-11-26T01:47:24.146Z,95.59
2017-11-26T01:49:54.567Z,95.72
2017-11-26T01:54:58.808Z,96.48
2017-11-26T02:00:05.225Z,95.67
2017-11-26T02:07:45.608Z,96.00
2017-11-26T02:10:16.217Z,96.34
2017-11-26T02:12:48.974Z,96.33
2017-11-26T02:15:21.037Z,96.18
2017-11-26T02:17:52.109Z,96.23
2017-11-26T02:20:22.613Z,96.00
2017-11-26T02:22:52.911Z,95.66
2017-11-26T02:25:23.628Z,95.60
2017-11-26T02:27:53.503Z,95.21
2017-11-26T02:30:23.131Z,95.23
2017-11-26T02:33:03.877Z,94.74
2017-11-26T02:35:41.569Z,94.67
2017-11-26T02:45:53.567Z,93.50
2017-11-26T02:48:24.253Z,93.86
2017-11-26T02:53:29.404Z,92.59
2017-11-26T02:58:32.929Z,93.34
2017-11-26T03:01:03.761Z,93.76
2017-11-26T03:03:35.512Z,94.24
2017-11-26T03:06:05.944Z,94.54
2017-11-26T03:11:10.459Z,92.04
2017-11-26T03:13:41.120Z,91.56
2017-11-26T03:18:45.372Z,90.06
2017-11-26T03:23:49.157Z,90.91
2017-11-26T03:26:19.706Z,90.22
2017-11-26T03:28:50.149Z,90.06
2017-11-26T03:31:23.932Z,89.94
2017-11-26T03:33:54.245Z,89.96
2017-11-26T03:36:24.235Z,89.43
2017-11-26T03:38:54.565Z,88.73
2017-11-26T03:41:24.749Z,88.20
2017-11-26T03:43:54.292Z,88.17
2017-11-26T03:46:29.028Z,88.13
2017-11-26T03:48:58.900Z,88.33
2017-11-26T03:51:29.994Z,87.69
2017-11-26T03:54:02.329Z,87.25
2017-11-26T03:56:32.321Z,86.92
2017-11-26T03:59:02.515Z,86.80
2017-11-26T04:09:18.105Z,88.33
2017-11-26T04:11:48.379Z,88.06
2017-11-26T04:14:21.326Z,87.71
2017-11-26T04:16:51.207Z,87.45
2017-11-26T04:19:22.695Z,87.15
2017-11-26T04:21:53.186Z,87.53
2017-11-26T04:26:56.872Z,87.41
2017-11-26T04:32:03.611Z,88.05
2017-11-26T04:34:37.572Z,88.28
2017-11-26T04:39:47.316Z,88.08
2017-11-26T04:42:17.204Z,87.88
2017-11-26T04:44:47.973Z,86.81
2017-11-26T04:47:18.553Z,87.10
2017-11-26T04:49:48.430Z,87.29
2017-11-26T04:52:20.256Z,87.47
2017-11-26T04:54:50.651Z,87.01
2017-11-26T04:57:20.664Z,86.68
2017-11-26T04:59:50.295Z,86.04
2017-11-26T05:02:20.040Z,86.51
2017-11-26T05:04:51.137Z,85.91
2017-11-26T05:07:25.549Z,86.02
2017-11-26T05:09:57.809Z,86.10
2017-11-26T05:12:31.089Z,85.96
2017-11-26T05:15:03.163Z,86.15
2017-11-26T05:17:35.945Z,86.07
2017-11-26T05:20:07.956Z,85.10
2017-11-26T05:22:41.981Z,85.24
2017-11-26T05:27:48.519Z,83.86
2017-11-26T05:30:30.879Z,83.67
2017-11-26T05:33:03.426Z,83.94
2017-11-26T05:35:34.430Z,83.62
2017-11-26T05:38:04.186Z,84.41
2017-11-26T05:40:42.316Z,83.89
2017-11-26T05:43:14.485Z,83.93
2017-11-26T05:45:44.423Z,84.05
2017-11-26T05:48:14.311Z,84.81
2017-11-26T05:50:44.372Z,84.53
2017-11-26T05:53:14.175Z,84.98
2017-11-26T05:55:43.990Z,84.82
2017-11-26T05:58:13.722Z,85.36
2017-11-26T06:00:42.970Z,84.91
2017-11-26T06:03:12.752Z,85.38
2017-11-26T06:05:43.871Z,85.40
2017-11-26T06:08:13.570Z,85.39
2017-11-26T06:10:43.433Z,85.54
2017-11-26T06:13:20.733Z,86.13
2017-11-26T06:15:52.988Z,86.50
2017-11-26T06:18:25.978Z,85.19
2017-11-26T06:20:57.628Z,84.69
2017-11-26T06:23:27.884Z,84.77
2017-11-26T06:28:40.849Z,84.30
2017-11-26T06:31:14.715Z,84.55
2017-11-26T06:33:45.019Z,84.90
2017-11-26T06:36:14.884Z,85.42
2017-11-26T06:38:44.692Z,85.02
2017-11-26T06:41:14.272Z,85.33
2017-11-26T06:43:44.220Z,85.08
2017-11-26T06:46:13.791Z,85.09
2017-11-26T06:48:43.560Z,84.57
2017-11-26T06:51:13.305Z,84.03
2017-11-26T06:53:43.411Z,83.87
2017-11-26T06:56:13.206Z,83.63
2017-11-26T06:58:43.036Z,83.28
2017-11-26T07:01:12.582Z,83.33
2017-11-26T07:03:42.491Z,83.06
2017-11-26T07:06:12.602Z,83.12
2017-11-26T07:08:42.410Z,83.19
2017-11-26T07:11:12.233Z,83.01
2017-11-26T07:13:41.450Z,81.75
2017-11-26T07:16:11.504Z,81.91
2017-11-26T07:18:40.978Z,82.28
2017-11-26T07:21:25.963Z,82.68
2017-11-26T07:23:56.691Z,80.97
2017-11-26T07:26:29.733Z,80.94
2017-11-26T07:28:59.535Z,81.70
2017-11-26T07:31:29.275Z,80.87
2017-11-26T07:33:59.211Z,81.24
2017-11-26T07:36:30.350Z,82.46
2017-11-26T07:39:01.064Z,81.17
2017-11-26T07:46:57.095Z,81.67
2017-11-26T07:55:55.891Z,80.47
2017-11-26T07:58:25.747Z,80.24
2017-11-26T08:00:55.617Z,79.61
2017-11-26T08:03:25.389Z,79.77
2017-11-26T08:05:55.220Z,79.45
2017-11-26T08:08:25.794Z,77.69
2017-11-26T08:10:55.680Z,77.39
2017-11-26T08:13:25.585Z,78.52
2017-11-26T08:15:58.563Z,77.95
2017-11-26T08:21:09.492Z,77.59
2017-11-26T08:23:41.435Z,76.52
2017-11-26T08:53:08.653Z,79.16
2017-11-26T08:58:24.086Z,78.93
2017-11-26T09:00:55.441Z,79.56
2017-11-26T09:03:29.481Z,79.50
2017-11-26T09:06:00.422Z,78.60
2017-11-26T09:08:54.271Z,78.94
2017-11-26T09:11:25.854Z,77.67
2017-11-26T09:13:55.520Z,77.52
2017-11-26T09:16:26.714Z,77.04
2017-11-26T09:19:00.165Z,76.46
2017-11-26T09:21:33.301Z,77.51
2017-11-26T09:24:06.404Z,77.29
2017-11-26T09:26:39.820Z,76.04
2017-11-26T09:29:13.247Z,75.39
2017-11-26T09:31:46.423Z,75.95
2017-11-26T09:34:20.826Z,75.46
2017-11-26T09:36:55.557Z,76.14
2017-11-26T09:39:29.213Z,76.40
2017-11-26T09:41:58.992Z,76.12
2017-11-26T09:44:28.706Z,76.68
2017-11-26T09:46:58.405Z,76.57
2017-11-26T09:49:28.224Z,76.44
2017-11-26T09:51:58.558Z,76.11
2017-11-26T09:54:29.128Z,76.34
2017-11-26T09:56:59.202Z,76.05
2017-11-26T09:59:28.996Z,75.43
2017-11-26T10:01:58.744Z,74.56
2017-11-26T10:04:28.575Z,75.84
2017-11-26T10:06:58.352Z,76.93
2017-11-26T10:09:28.253Z,75.25
2017-11-26T10:12:00.750Z,76.03
2017-11-26T10:14:33.685Z,75.87
2017-11-26T10:17:03.589Z,77.42
2017-11-26T10:19:33.383Z,77.52
2017-11-26T10:22:03.296Z,77.15
2017-11-26T10:24:33.920Z,77.68
2017-11-26T10:27:04.092Z,77.53
2017-11-26T10:29:33.579Z,77.94
2017-11-26T10:32:05.394Z,77.65
2017-11-26T10:34:35.333Z,76.46
2017-11-26T10:37:05.883Z,75.06
2017-11-26T10:39:35.974Z,75.16
2017-11-26T10:42:05.856Z,72.53
2017-11-26T10:44:35.217Z,72.34
2017-11-26T10:47:04.876Z,71.39
2017-11-26T10:49:35.199Z,71.05
2017-11-26T10:52:05.305Z,69.27
2017-11-26T10:54:34.734Z,68.89
2017-11-26T10:57:05.632Z,67.98
2017-11-26T10:59:35.531Z,66.63
2017-11-26T11:02:05.434Z,66.86
2017-11-26T11:07:16.866Z,66.87
2017-11-26T11:09:46.592Z,67.83
2017-11-26T11:12:15.988Z,67.65
2017-11-26T11:14:45.692Z,67.33
2017-11-26T11:17:15.078Z,66.53
2017-11-26T11:19:45.120Z,67.03
2017-11-26T11:22:14.508Z,67.28
2017-11-26T11:24:44.241Z,67.27
2017-11-26T11:27:14.007Z,66.53
2017-11-26T11:29:43.537Z,65.95
2017-11-26T11:32:13.299Z,65.66
2017-11-26T11:34:43.051Z,66.84
2017-11-26T11:37:12.821Z,66.57
2017-11-26T11:39:42.596Z,66.49
2017-11-26T11:42:12.306Z,66.20
2017-11-26T11:44:42.405Z,65.32
2017-11-26T11:47:12.196Z,65.01
2017-11-26T11:49:41.986Z,64.55
2017-11-26T11:52:11.909Z,64.37
2017-11-26T11:54:41.470Z,60.61
2017-11-26T11:57:10.873Z,58.42
2017-11-26T11:59:40.296Z,56.77
2017-11-26T12:02:09.691Z,55.79
2017-11-26T12:04:39.470Z,57.46
2017-11-26T12:07:09.538Z,59.39
2017-11-26T12:09:39.253Z,61.16
2017-11-26T12:12:09.060Z,62.33
2017-11-26T12:14:38.497Z,63.31
2017-11-26T12:17:07.923Z,63.62
2017-11-26T12:19:37.396Z,65.53
2017-11-26T12:22:06.764Z,64.96
2017-11-26T12:24:36.163Z,64.59
2017-11-26T12:27:05.585Z,63.90
2017-11-26T12:29:34.845Z,63.98
2017-11-26T12:32:03.819Z,64.16
2017-11-26T12:34:33.250Z,63.85
2017-11-26T12:37:02.438Z,64.02
2017-11-26T12:39:31.835Z,64.56
2017-11-26T12:42:01.228Z,65.38
2017-11-26T12:44:30.614Z,65.37
2017-11-26T12:46:59.977Z,65.10
2017-11-26T12:49:29.402Z,65.21
2017-11-26T12:51:58.786Z,64.76
2017-11-26T12:57:03.707Z,65.89
2017-11-26T12:59:33.105Z,66.34
2017-11-26T13:02:02.519Z,66.71
2017-11-26T13:04:31.906Z,71.94
2017-11-26T13:07:01.304Z,74.68
2017-11-26T13:09:30.496Z,74.28
2017-11-26T13:11:59.937Z,77.46
2017-11-26T13:14:29.384Z,79.47
2017-11-26T13:17:03.087Z,64.44
2017-11-26T13:19:32.559Z,53.84
2017-11-26T13:22:01.957Z,54.58
2017-11-26T13:24:31.207Z,57.76
2017-11-26T13:27:00.492Z,59.56
2017-11-26T13:29:30.606Z,60.90
2017-11-26T13:32:00.036Z,66.14
2017-11-26T13:34:29.459Z,66.11
2017-11-26T13:36:58.856Z,64.71
2017-11-26T13:39:28.251Z,61.27
2017-11-26T13:41:57.644Z,53.02
2017-11-26T13:44:27.061Z,55.77
2017-11-26T13:49:51.317Z,61.38
2017-11-26T13:52:24.651Z,63.47
2017-11-26T13:54:54.244Z,66.29
2017-11-26T13:57:23.791Z,68.92
2017-11-26T13:59:53.377Z,68.15
2017-11-26T14:02:23.658Z,69.22
2017-11-26T14:04:53.261Z,69.49
2017-11-26T14:07:22.912Z,70.29
2017-11-26T14:09:52.214Z,70.68
2017-11-26T14:12:22.009Z,69.14
2017-11-26T14:14:51.618Z,69.08
2017-11-26T14:17:21.152Z,70.99
2017-11-26T14:19:50.905Z,71.88
2017-11-26T14:22:20.707Z,71.66
2017-11-26T14:24:50.307Z,70.66
2017-11-26T14:27:20.037Z,69.85
2017-11-26T14:29:50.041Z,69.81
2017-11-26T14:32:19.530Z,69.83
2017-11-26T14:34:48.926Z,72.03
2017-11-26T14:37:18.590Z,71.16
2017-11-26T14:39:48.153Z,71.84
2017-11-26T14:42:17.435Z,72.03
2017-11-26T14:44:46.672Z,71.26
2017-11-26T14:47:16.167Z,71.54
2017-11-26T14:49:45.815Z,71.35
2017-11-26T14:52:16.039Z,71.05
2017-11-26T14:54:45.119Z,72.00
2017-11-26T14:57:14.444Z,72.77
2017-11-26T14:59:46.042Z,73.84
2017-11-26T15:02:15.596Z,73.58
2017-11-26T15:04:45.161Z,73.82
2017-11-26T15:07:14.578Z,74.17
2017-11-26T15:09:43.807Z,74.82
2017-11-26T15:12:13.226Z,75.64
2017-11-26T15:14:42.520Z,77.14
2017-11-26T15:17:11.785Z,77.78
2017-11-26T15:19:40.840Z,77.65
2017-11-26T15:22:10.065Z,78.53
2017-11-26T15:24:39.285Z,79.34
2017-11-26T15:27:08.691Z,80.56
2017-11-26T15:29:38.046Z,80.28
2017-11-26T15:32:07.468Z,79.55
2017-11-26T15:34:36.895Z,81.08
2017-11-26T15:37:06.060Z,82.03
2017-11-26T15:39:35.317Z,82.21
2017-11-26T15:42:04.705Z,82.02
2017-11-26T15:44:34.590Z,81.49
2017-11-26T15:47:03.784Z,81.19
2017-11-26T15:49:33.230Z,81.30
2017-11-26T15:52:02.623Z,80.16
2017-11-26T15:54:32.106Z,81.20
2017-11-26T15:57:01.345Z,79.33
2017-11-26T15:59:31.187Z,78.52
2017-11-26T16:02:00.455Z,79.41
2017-11-26T16:04:29.727Z,79.64
2017-11-26T16:06:59.476Z,79.86
2017-11-26T16:09:28.842Z,79.70
2017-11-26T16:11:58.588Z,80.62
2017-11-26T16:14:28.006Z,82.01
2017-11-26T16:16:57.719Z,82.13
2017-11-26T16:19:31.412Z,82.05
2017-11-26T16:22:00.839Z,82.89
2017-11-26T16:24:31.143Z,82.45
2017-11-26T16:27:00.865Z,80.08
2017-11-26T16:29:30.297Z,79.99
2017-11-26T16:32:00.047Z,80.17
2017-11-26T16:34:29.428Z,81.57
2017-11-26T16:36:59.860Z,82.42
2017-11-26T16:39:29.574Z,84.30
2017-11-26T16:41:58.887Z,85.83
2017-11-26T16:44:28.307Z,87.74
2017-11-26T16:46:57.755Z,88.44
2017-11-26T16:49:26.926Z,89.11
2017-11-26T16:51:56.676Z,89.57
2017-11-26T16:54:26.128Z,90.22
2017-11-26T16:56:55.727Z,91.48
2017-11-26T16:59:25.217Z,91.62
2017-11-26T17:01:54.590Z,92.05
2017-11-26T17:04:23.803Z,92.46
2017-11-26T17:06:53.029Z,91.25
2017-11-26T17:09:22.222Z,90.09
2017-11-26T17:11:51.424Z,89.07
2017-11-26T17:14:20.822Z,89.19
2017-11-26T17:16:58.257Z,88.75
2017-11-26T17:19:27.788Z,87.94
2017-11-26T17:21:57.299Z,87.80
2017-11-26T17:24:26.691Z,87.81
2017-11-26T17:26:56.436Z,87.90
2017-11-26T17:29:25.901Z,88.35
2017-11-26T17:31:55.376Z,88.04
2017-11-26T17:34:24.747Z,89.14
2017-11-26T17:36:54.465Z,88.53
2017-11-26T17:39:23.863Z,89.14
2017-11-26T17:41:53.854Z,88.49
2017-11-26T17:44:23.062Z,88.69
2017-11-26T17:46:52.477Z,89.50
2017-11-26T17:49:21.868Z,87.93
2017-11-26T17:51:51.281Z,88.35
2017-11-26T17:54:20.673Z,88.80
2017-11-26T17:56:50.828Z,87.99
2017-11-26T17:59:20.603Z,87.81
2017-11-26T18:01:50.336Z,89.01
2017-11-26T18:04:21.325Z,87.63
2017-11-26T18:06:51.038Z,88.10
2017-11-26T18:09:20.742Z,88.32
2017-11-26T18:11:50.271Z,88.10
2017-11-26T18:14:19.824Z,88.43
2017-11-26T18:16:49.573Z,88.97
2017-11-26T18:19:19.347Z,89.27
2017-11-26T18:21:49.153Z,90.22
2017-11-26T18:24:18.905Z,90.18
2017-11-26T18:26:48.629Z,90.38
2017-11-26T18:29:18.345Z,90.15
2017-11-26T18:31:48.063Z,88.63
2017-11-26T18:34:17.838Z,87.90
2017-11-26T18:36:47.572Z,88.36
2017-11-26T18:39:17.461Z,87.38
2017-11-26T18:41:47.290Z,87.30
2017-11-26T18:44:17.036Z,87.86
2017-11-26T18:46:51.810Z,86.48
2017-11-26T18:49:21.792Z,86.22
2017-11-26T18:51:51.548Z,86.75
2017-11-26T18:54:21.304Z,85.82
2017-11-26T18:56:50.999Z,86.40
2017-11-26T18:59:20.744Z,86.77
2017-11-26T19:01:50.451Z,86.91
2017-11-26T19:04:20.181Z,86.28
2017-11-26T19:06:49.890Z,85.76
2017-11-26T19:09:19.654Z,86.47
2017-11-26T19:11:53.554Z,86.83
2017-11-26T19:14:23.323Z,86.63
2017-11-26T19:16:53.090Z,87.57
2017-11-26T19:19:22.834Z,88.04
2017-11-26T19:21:52.634Z,88.14
2017-11-26T19:24:22.676Z,88.33
2017-11-26T19:26:52.525Z,87.66
2017-11-26T19:29:22.299Z,87.52
2017-11-26T19:31:52.134Z,87.71
2017-11-26T19:34:22.107Z,88.33
2017-11-26T19:36:51.809Z,88.34
2017-11-26T19:39:21.515Z,88.22
2017-11-26T19:41:51.260Z,88.55
2017-11-26T19:44:21.183Z,87.83
2017-11-26T19:46:50.906Z,86.95
2017-11-26T19:49:20.518Z,87.15
2017-11-26T19:51:50.223Z,86.48
2017-11-26T19:54:19.917Z,87.08
2017-11-26T19:56:49.445Z,87.49
2017-11-26T19:59:23.010Z,87.76
2017-11-26T20:01:52.936Z,86.88
2017-11-26T20:04:22.723Z,86.28
2017-11-26T20:06:52.313Z,87.40
2017-11-26T20:09:21.917Z,87.17
2017-11-26T20:11:51.489Z,87.70
2017-11-26T20:14:21.228Z,87.82
2017-11-26T20:16:50.978Z,86.56
2017-11-26T20:19:20.698Z,86.54
2017-11-26T20:21:50.431Z,86.73
2017-11-26T20:24:20.149Z,87.09
2017-11-26T20:26:49.858Z,86.72
2017-11-26T20:29:19.398Z,86.76
2017-11-26T20:31:49.159Z,87.04
2017-11-26T20:34:19.058Z,86.44
2017-11-26T20:36:49.001Z,86.71
2017-11-26T20:39:18.772Z,87.31
2017-11-26T20:41:48.486Z,87.04
2017-11-26T20:44:18.202Z,87.08
2017-11-26T20:46:48.940Z,87.00
2017-11-26T20:49:20.093Z,87.77
2017-11-26T20:51:50.417Z,88.48
2017-11-26T20:54:20.153Z,88.99
2017-11-26T20:56:49.868Z,89.11
2017-11-26T20:59:19.674Z,89.28
2017-11-26T21:01:49.563Z,88.80
2017-11-26T21:04:19.305Z,89.28
2017-11-26T21:06:49.151Z,89.10
2017-11-26T21:09:18.916Z,88.80
2017-11-26T21:11:48.743Z,88.69
2017-11-26T21:14:18.356Z,89.06
2017-11-26T21:16:48.460Z,89.12
2017-11-26T21:19:18.318Z,88.58
2017-11-26T21:21:47.889Z,88.57
2017-11-26T21:24:17.442Z,88.79
2017-11-26T21:26:47.291Z,87.76
2017-11-26T21:29:17.323Z,88.14
2017-11-26T21:31:47.049Z,88.09
2017-11-26T21:34:16.850Z,87.97
2017-11-26T21:36:46.711Z,88.12
2017-11-26T21:39:16.425Z,87.83
2017-11-26T21:41:46.136Z,87.36
2017-11-26T21:44:15.863Z,87.22
2017-11-26T21:46:45.601Z,87.04
2017-11-26T21:49:15.411Z,87.02
2017-11-26T21:51:44.988Z,87.12
2017-11-26T21:54:15.071Z,86.73
2017-11-26T21:56:44.799Z,86.07
2017-11-26T21:59:14.606Z,85.78
2017-11-26T22:01:44.321Z,85.28
2017-11-26T22:04:14.036Z,85.49
2017-11-26T22:06:43.791Z,85.37
2017-11-26T22:09:13.520Z,85.67
2017-11-26T22:11:43.367Z,85.96
2017-11-26T22:14:13.094Z,86.52
2017-11-26T22:16:42.818Z,86.86
2017-11-26T22:19:12.756Z,87.21
2017-11-26T22:21:42.519Z,87.19
2017-11-26T22:24:12.236Z,87.12
2017-11-26T22:26:41.959Z,86.51
2017-11-26T22:29:11.679Z,86.28
2017-11-26T22:31:41.999Z,86.89
2017-11-26T22:34:11.737Z,87.24
2017-11-26T22:36:41.442Z,87.45
2017-11-26T22:39:11.149Z,87.19
2017-11-26T22:41:40.864Z,87.38
2017-11-26T22:44:10.581Z,87.07
2017-11-26T22:46:40.320Z,87.18
2017-11-26T22:49:10.135Z,87.10
2017-11-26T22:51:39.868Z,86.53
2017-11-26T22:54:09.637Z,86.69
2017-11-26T22:56:44.544Z,86.46
2017-11-26T22:59:15.674Z,85.92
2017-11-26T23:01:45.592Z,85.46
2017-11-26T23:04:15.318Z,85.75
2017-11-26T23:06:44.862Z,85.90
2017-11-26T23:09:14.569Z,86.08
2017-11-26T23:11:44.290Z,86.30
2017-11-26T23:14:14.006Z,86.55
2017-11-26T23:16:43.731Z,86.31
2017-11-26T23:19:13.452Z,86.48
2017-11-26T23:21:42.857Z,86.29
2017-11-26T23:24:12.770Z,86.77
2017-11-26T23:26:42.491Z,86.50
2017-11-26T23:29:12.192Z,87.12
2017-11-26T23:31:41.930Z,87.63
2017-11-26T23:34:11.651Z,87.42
2017-11-26T23:36:41.363Z,87.82
2017-11-26T23:39:11.083Z,88.10
2017-11-26T23:41:40.782Z,88.00
2017-11-26T23:44:10.491Z,88.29
2017-11-26T23:46:40.214Z,88.69
2017-11-26T23:49:09.930Z,89.22
2017-11-26T23:51:39.639Z,89.19
2017-11-26T23:54:09.178Z,89.35
2017-11-26T23:56:38.712Z,89.09
2017-11-26T23:59:08.743Z,89.08
